sensor_id;sensor_type;location;lat;lon;timestamp;pressure;altitude;pressure_sealevel;temperature;humidity
47670;BME280;33408;52.062;11.722;2022-08-19T00:02:18;100659.63;;;20.96;100.00
47670;BME280;33408;52.062;11.722;2022-08-19T00:04:45;100657.78;;;20.98;100.00
47670;BME280;33408;52.062;11.722;2022-08-19T00:07:13;100649.00;;;20.98;100.00
47670;BME280;33408;52.062;11.722;2022-08-19T00:09:40;100655.13;;;20.98;100.00
47670;BME280;33408;52.062;11.722;2022-08-19T00:12:07;100649.91;;;20.84;100.00
47670;BME280;33408;52.062;11.722;2022-08-19T00:14:34;100658.47;;;20.73;100.00
47670;BME280;33408;52.062;11.722;2022-08-19T00:17:01;100660.81;;;20.77;100.00
47670;BME280;33408;52.062;11.722;2022-08-19T00:19:30;100657.16;;;20.66;100.00
47670;BME280;33408;52.062;11.722;2022-08-19T00:21:56;100655.38;;;20.66;100.00
47670;BME280;33408;52.062;11.722;2022-08-19T00:24:23;100651.59;;;20.56;100.00
47670;BME280;33408;52.062;11.722;2022-08-19T00:26:51;100647.53;;;20.50;100.00
47670;BME280;33408;52.062;11.722;2022-08-19T00:29:19;100649.69;;;20.58;100.00
47670;BME280;33408;52.062;11.722;2022-08-19T00:31:46;100646.50;;;20.53;100.00
47670;BME280;33408;52.062;11.722;2022-08-19T00:34:14;100650.91;;;20.52;100.00
47670;BME280;33408;52.062;11.722;2022-08-19T00:36:42;100653.25;;;20.57;100.00
47670;BME280;33408;52.062;11.722;2022-08-19T00:39:10;100633.06;;;20.43;100.00
47670;BME280;33408;52.062;11.722;2022-08-19T00:41:36;100637.00;;;20.50;100.00
47670;BME280;33408;52.062;11.722;2022-08-19T00:44:05;100637.28;;;20.46;100.00
47670;BME280;33408;52.062;11.722;2022-08-19T00:46:33;100640.66;;;20.48;100.00
47670;BME280;33408;52.062;11.722;2022-08-19T00:49:02;100641.44;;;20.50;100.00
47670;BME280;33408;52.062;11.722;2022-08-19T00:51:33;100639.34;;;20.55;100.00
47670;BME280;33408;52.062;11.722;2022-08-19T00:54:02;100645.09;;;20.47;100.00
47670;BME280;33408;52.062;11.722;2022-08-19T00:56:30;100642.44;;;20.62;100.00
47670;BME280;33408;52.062;11.722;2022-08-19T00:58:58;100644.25;;;20.61;100.00
47670;BME280;33408;52.062;11.722;2022-08-19T01:01:25;100639.53;;;20.52;100.00
47670;BME280;33408;52.062;11.722;2022-08-19T01:03:51;100636.16;;;20.50;100.00
47670;BME280;33408;52.062;11.722;2022-08-19T01:06:18;100643.69;;;20.56;100.00
47670;BME280;33408;52.062;11.722;2022-08-19T01:08:45;100635.28;;;20.49;100.00
47670;BME280;33408;52.062;11.722;2022-08-19T01:11:13;100642.53;;;20.60;100.00
47670;BME280;33408;52.062;11.722;2022-08-19T01:13:40;100634.19;;;20.53;100.00
47670;BME280;33408;52.062;11.722;2022-08-19T01:16:11;100647.34;;;20.53;100.00
47670;BME280;33408;52.062;11.722;2022-08-19T01:18:41;100647.53;;;20.50;100.00
47670;BME280;33408;52.062;11.722;2022-08-19T01:21:12;100649.13;;;20.38;100.00
47670;BME280;33408;52.062;11.722;2022-08-19T01:23:44;100640.56;;;20.49;100.00
47670;BME280;33408;52.062;11.722;2022-08-19T01:26:14;100644.81;;;20.52;100.00
47670;BME280;33408;52.062;11.722;2022-08-19T01:28:42;100635.38;;;20.48;100.00
47670;BME280;33408;52.062;11.722;2022-08-19T01:31:12;100634.84;;;20.43;100.00
47670;BME280;33408;52.062;11.722;2022-08-19T01:33:39;100631.47;;;20.40;100.00
47670;BME280;33408;52.062;11.722;2022-08-19T01:36:08;100634.09;;;20.40;100.00
47670;BME280;33408;52.062;11.722;2022-08-19T01:38:38;100647.06;;;20.44;100.00
47670;BME280;33408;52.062;11.722;2022-08-19T01:41:06;100647.63;;;20.49;100.00
47670;BME280;33408;52.062;11.722;2022-08-19T01:43:32;100646.41;;;20.54;100.00
47670;BME280;33408;52.062;11.722;2022-08-19T01:45:59;100655.91;;;20.57;100.00
47670;BME280;33408;52.062;11.722;2022-08-19T01:48:26;100658.63;;;20.55;100.00
47670;BME280;33408;52.062;11.722;2022-08-19T01:50:54;100659.09;;;20.48;100.00
47670;BME280;33408;52.062;11.722;2022-08-19T01:53:21;100650.53;;;20.44;100.00
47670;BME280;33408;52.062;11.722;2022-08-19T01:55:47;100655.91;;;20.43;100.00
47670;BME280;33408;52.062;11.722;2022-08-19T01:58:19;100661.16;;;20.43;100.00
47670;BME280;33408;52.062;11.722;2022-08-19T02:00:47;100655.44;;;20.36;100.00
47670;BME280;33408;52.062;11.722;2022-08-19T02:03:14;100652.34;;;20.44;100.00
47670;BME280;33408;52.062;11.722;2022-08-19T02:05:42;100657.97;;;20.37;100.00
47670;BME280;33408;52.062;11.722;2022-08-19T02:08:11;100656.06;;;20.39;100.00
47670;BME280;33408;52.062;11.722;2022-08-19T02:10:40;100651.19;;;20.33;100.00
47670;BME280;33408;52.062;11.722;2022-08-19T02:13:06;100637.84;;;20.36;100.00
47670;BME280;33408;52.062;11.722;2022-08-19T02:15:34;100640.88;;;20.30;100.00
47670;BME280;33408;52.062;11.722;2022-08-19T02:18:01;100639.25;;;20.28;100.00
47670;BME280;33408;52.062;11.722;2022-08-19T02:20:28;100641.06;;;20.27;100.00
47670;BME280;33408;52.062;11.722;2022-08-19T02:22:54;100640.28;;;20.25;100.00
47670;BME280;33408;52.062;11.722;2022-08-19T02:25:21;100641.13;;;20.26;100.00
47670;BME280;33408;52.062;11.722;2022-08-19T02:27:47;100640.97;;;20.29;100.00
47670;BME280;33408;52.062;11.722;2022-08-19T02:30:15;100631.44;;;20.26;100.00
47670;BME280;33408;52.062;11.722;2022-08-19T02:32:44;100627.88;;;20.27;100.00
47670;BME280;33408;52.062;11.722;2022-08-19T02:35:11;100632.56;;;20.22;100.00
47670;BME280;33408;52.062;11.722;2022-08-19T02:37:39;100626.38;;;20.23;100.00
47670;BME280;33408;52.062;11.722;2022-08-19T02:40:23;100622.44;;;20.16;100.00
47670;BME280;33408;52.062;11.722;2022-08-19T02:42:49;100617.34;;;20.13;100.00
47670;BME280;33408;52.062;11.722;2022-08-19T02:45:16;100611.72;;;20.19;100.00
47670;BME280;33408;52.062;11.722;2022-08-19T02:47:44;100607.66;;;20.13;100.00
47670;BME280;33408;52.062;11.722;2022-08-19T02:50:11;100608.50;;;20.14;100.00
47670;BME280;33408;52.062;11.722;2022-08-19T02:52:38;100603.03;;;20.17;100.00
47670;BME280;33408;52.062;11.722;2022-08-19T02:55:06;100597.69;;;20.18;100.00
47670;BME280;33408;52.062;11.722;2022-08-19T02:57:33;100591.41;;;20.07;100.00
47670;BME280;33408;52.062;11.722;2022-08-19T03:00:03;100589.41;;;20.10;100.00
47670;BME280;33408;52.062;11.722;2022-08-19T03:02:30;100591.41;;;20.07;100.00
47670;BME280;33408;52.062;11.722;2022-08-19T03:04:58;100589.69;;;20.06;100.00
47670;BME280;33408;52.062;11.722;2022-08-19T03:07:24;100579.16;;;20.06;100.00
47670;BME280;33408;52.062;11.722;2022-08-19T03:09:51;100582.94;;;20.01;100.00
47670;BME280;33408;52.062;11.722;2022-08-19T03:12:18;100580.88;;;20.07;100.00
47670;BME280;33408;52.062;11.722;2022-08-19T03:14:44;100591.41;;;20.07;100.00
47670;BME280;33408;52.062;11.722;2022-08-19T03:17:11;100607.91;;;19.94;100.00
47670;BME280;33408;52.062;11.722;2022-08-19T03:19:38;100597.84;;;20.01;100.00
47670;BME280;33408;52.062;11.722;2022-08-19T03:22:06;100588.66;;;19.94;100.00
47670;BME280;33408;52.062;11.722;2022-08-19T03:24:33;100594.41;;;20.00;100.00
47670;BME280;33408;52.062;11.722;2022-08-19T03:26:59;100590.25;;;19.96;100.00
47670;BME280;33408;52.062;11.722;2022-08-19T03:29:27;100596.38;;;19.97;100.00
47670;BME280;33408;52.062;11.722;2022-08-19T03:31:57;100590.25;;;19.96;100.00
47670;BME280;33408;52.062;11.722;2022-08-19T03:34:28;100585.56;;;19.87;100.00
47670;BME280;33408;52.062;11.722;2022-08-19T03:36:57;100589.59;;;19.93;100.00
47670;BME280;33408;52.062;11.722;2022-08-19T03:39:26;100607.91;;;19.94;100.00
47670;BME280;33408;52.062;11.722;2022-08-19T03:41:54;100613.16;;;19.94;100.00
47670;BME280;33408;52.062;11.722;2022-08-19T03:44:25;100606.97;;;19.95;100.00
47670;BME280;33408;52.062;11.722;2022-08-19T03:46:53;100597.78;;;20.02;100.00
47670;BME280;33408;52.062;11.722;2022-08-19T03:49:22;100596.91;;;19.88;100.00
47670;BME280;33408;52.062;11.722;2022-08-19T03:51:49;100604.16;;;19.84;100.00
47670;BME280;33408;52.062;11.722;2022-08-19T03:54:18;100597.38;;;19.94;100.00
47670;BME280;33408;52.062;11.722;2022-08-19T03:56:48;100589.75;;;19.90;100.00
47670;BME280;33408;52.062;11.722;2022-08-19T03:59:17;100589.94;;;19.86;100.00
47670;BME280;33408;52.062;11.722;2022-08-19T04:01:44;100601.25;;;19.89;100.00
47670;BME280;33408;52.062;11.722;2022-08-19T04:04:11;100597.94;;;19.85;100.00
47670;BME280;33408;52.062;11.722;2022-08-19T04:06:38;100602.44;;;19.83;100.00
47670;BME280;33408;52.062;11.722;2022-08-19T04:09:07;100594.06;;;19.76;100.00
47670;BME280;33408;52.062;11.722;2022-08-19T04:11:36;100593.25;;;19.76;100.00
47670;BME280;33408;52.062;11.722;2022-08-19T04:14:08;100598.31;;;19.79;100.00
47670;BME280;33408;52.062;11.722;2022-08-19T04:16:35;100594.91;;;19.77;100.00
47670;BME280;33408;52.062;11.722;2022-08-19T04:19:04;100605.56;;;19.90;100.00
47670;BME280;33408;52.062;11.722;2022-08-19T04:21:31;100606.63;;;19.71;100.00
47670;BME280;33408;52.062;11.722;2022-08-19T04:23:58;100607.28;;;19.75;100.00
47670;BME280;33408;52.062;11.722;2022-08-19T04:26:29;100621.28;;;19.75;100.00
47670;BME280;33408;52.062;11.722;2022-08-19T04:28:57;100625.88;;;19.72;100.00
47670;BME280;33408;52.062;11.722;2022-08-19T04:31:27;100632.53;;;19.63;100.00
47670;BME280;33408;52.062;11.722;2022-08-19T04:33:55;100636.38;;;19.72;100.00
47670;BME280;33408;52.062;11.722;2022-08-19T04:36:24;100634.38;;;19.61;100.00
47670;BME280;33408;52.062;11.722;2022-08-19T04:38:54;100640.50;;;19.61;100.00
47670;BME280;33408;52.062;11.722;2022-08-19T04:41:22;100645.59;;;19.64;100.00
47670;BME280;33408;52.062;11.722;2022-08-19T04:44:06;100652.09;;;19.73;100.00
47670;BME280;33408;52.062;11.722;2022-08-19T04:46:35;100651.25;;;19.73;100.00
47670;BME280;33408;52.062;11.722;2022-08-19T04:49:03;100654.13;;;19.68;100.00
47670;BME280;33408;52.062;11.722;2022-08-19T04:51:31;100647.88;;;19.71;100.00
47670;BME280;33408;52.062;11.722;2022-08-19T04:53:58;100667.38;;;19.66;100.00
47670;BME280;33408;52.062;11.722;2022-08-19T04:56:25;100661.00;;;19.71;100.00
47670;BME280;33408;52.062;11.722;2022-08-19T04:58:53;100665.66;;;19.65;100.00
47670;BME280;33408;52.062;11.722;2022-08-19T05:01:24;100651.59;;;19.66;100.00
47670;BME280;33408;52.062;11.722;2022-08-19T05:03:52;100649.72;;;19.68;100.00
47670;BME280;33408;52.062;11.722;2022-08-19T05:06:20;100638.28;;;19.70;100.00
47670;BME280;33408;52.062;11.722;2022-08-19T05:08:48;100638.09;;;19.73;100.00
47670;BME280;33408;52.062;11.722;2022-08-19T05:11:17;100637.22;;;19.72;100.00
47670;BME280;33408;52.062;11.722;2022-08-19T05:13:46;100638.84;;;19.75;100.00
47670;BME280;33408;52.062;11.722;2022-08-19T05:16:15;100646.81;;;19.73;100.00
47670;BME280;33408;52.062;11.722;2022-08-19T05:18:42;100646.72;;;19.75;100.00
47670;BME280;33408;52.062;11.722;2022-08-19T05:21:28;100646.50;;;19.79;100.00
47670;BME280;33408;52.062;11.722;2022-08-19T05:24:14;100637.00;;;19.77;100.00
47670;BME280;33408;52.062;11.722;2022-08-19T05:26:43;100645.09;;;19.88;100.00
47670;BME280;33408;52.062;11.722;2022-08-19T05:29:12;100646.97;;;19.86;100.00
47670;BME280;33408;52.062;11.722;2022-08-19T05:31:39;100648.03;;;19.98;100.00
47670;BME280;33408;52.062;11.722;2022-08-19T05:34:06;100653.94;;;19.87;100.00
47670;BME280;33408;52.062;11.722;2022-08-19T05:36:36;100654.16;;;19.98;100.00
47670;BME280;33408;52.062;11.722;2022-08-19T05:39:05;100647.56;;;19.91;100.00
47670;BME280;33408;52.062;11.722;2022-08-19T05:41:32;100650.69;;;20.12;100.00
47670;BME280;33408;52.062;11.722;2022-08-19T05:44:02;100654.56;;;20.07;100.00
47670;BME280;33408;52.062;11.722;2022-08-19T05:46:31;100659.91;;;20.05;100.00
47670;BME280;33408;52.062;11.722;2022-08-19T05:48:58;100655.84;;;19.99;100.00
47670;BME280;33408;52.062;11.722;2022-08-19T05:51:25;100652.72;;;19.93;100.00
47670;BME280;33408;52.062;11.722;2022-08-19T05:53:53;100654.38;;;20.10;100.00
47670;BME280;33408;52.062;11.722;2022-08-19T05:56:19;100664.16;;;20.08;100.00
47670;BME280;33408;52.062;11.722;2022-08-19T05:58:46;100659.59;;;19.95;100.00
47670;BME280;33408;52.062;11.722;2022-08-19T06:01:15;100666.75;;;19.93;100.00
47670;BME280;33408;52.062;11.722;2022-08-19T06:03:43;100664.56;;;19.85;100.00
47670;BME280;33408;52.062;11.722;2022-08-19T06:06:12;100673.03;;;19.75;100.00
47670;BME280;33408;52.062;11.722;2022-08-19T06:08:39;100671.63;;;19.69;100.00
47670;BME280;33408;52.062;11.722;2022-08-19T06:11:18;100677.53;;;19.89;100.00
47670;BME280;33408;52.062;11.722;2022-08-19T06:13:46;100679.78;;;19.80;100.00
47670;BME280;33408;52.062;11.722;2022-08-19T06:16:14;100686.72;;;19.81;100.00
47670;BME280;33408;52.062;11.722;2022-08-19T06:18:48;100686.38;;;19.72;100.00
47670;BME280;33408;52.062;11.722;2022-08-19T06:21:17;100684.16;;;19.80;100.00
47670;BME280;33408;52.062;11.722;2022-08-19T06:23:44;100699.28;;;19.76;100.00
47670;BME280;33408;52.062;11.722;2022-08-19T06:26:11;100709.38;;;19.84;100.00
47670;BME280;33408;52.062;11.722;2022-08-19T06:28:39;100715.91;;;19.77;100.00
47670;BME280;33408;52.062;11.722;2022-08-19T06:31:08;100713.59;;;19.86;100.00
47670;BME280;33408;52.062;11.722;2022-08-19T06:33:34;100721.22;;;19.75;100.00
47670;BME280;33408;52.062;11.722;2022-08-19T06:36:02;100721.50;;;19.71;100.00
47670;BME280;33408;52.062;11.722;2022-08-19T06:38:29;100729.56;;;19.67;100.00
47670;BME280;33408;52.062;11.722;2022-08-19T06:41:00;100730.41;;;19.68;100.00
47670;BME280;33408;52.062;11.722;2022-08-19T06:43:27;100729.06;;;19.77;100.00
47670;BME280;33408;52.062;11.722;2022-08-19T06:45:55;100733.97;;;19.67;100.00
47670;BME280;33408;52.062;11.722;2022-08-19T06:48:22;100729.41;;;19.71;100.00
47670;BME280;33408;52.062;11.722;2022-08-19T06:50:49;100733.28;;;19.63;100.00
47670;BME280;33408;52.062;11.722;2022-08-19T06:53:16;100732.38;;;19.64;100.00
47670;BME280;33408;52.062;11.722;2022-08-19T06:55:44;100733.88;;;19.53;100.00
47670;BME280;33408;52.062;11.722;2022-08-19T06:58:11;100742.38;;;19.58;100.00
47670;BME280;33408;52.062;11.722;2022-08-19T07:00:38;100742.91;;;19.48;100.00
47670;BME280;33408;52.062;11.722;2022-08-19T07:03:06;100740.75;;;19.55;100.00
47670;BME280;33408;52.062;11.722;2022-08-19T07:05:32;100748.16;;;19.48;100.00
47670;BME280;33408;52.062;11.722;2022-08-19T07:07:59;100750.94;;;19.45;100.00
47670;BME280;33408;52.062;11.722;2022-08-19T07:10:25;100745.69;;;19.61;100.00
47670;BME280;33408;52.062;11.722;2022-08-19T07:12:52;100744.56;;;19.49;100.00
47670;BME280;33408;52.062;11.722;2022-08-19T07:15:19;100748.66;;;19.39;100.00
47670;BME280;33408;52.062;11.722;2022-08-19T07:17:46;100757.22;;;19.43;100.00
47670;BME280;33408;52.062;11.722;2022-08-19T07:20:15;100756.72;;;19.36;100.00
47670;BME280;33408;52.062;11.722;2022-08-19T07:22:41;100751.38;;;19.38;100.00
47670;BME280;33408;52.062;11.722;2022-08-19T07:25:09;100755.69;;;19.55;100.00
47670;BME280;33408;52.062;11.722;2022-08-19T07:27:35;100761.53;;;19.28;100.00
47670;BME280;33408;52.062;11.722;2022-08-19T07:30:03;100767.31;;;19.35;100.00
47670;BME280;33408;52.062;11.722;2022-08-19T07:32:30;100774.53;;;19.47;100.00
47670;BME280;33408;52.062;11.722;2022-08-19T07:34:57;100782.84;;;19.55;100.00
47670;BME280;33408;52.062;11.722;2022-08-19T07:37:29;100786.97;;;19.59;100.00
47670;BME280;33408;52.062;11.722;2022-08-19T07:39:56;100792.34;;;19.58;100.00
47670;BME280;33408;52.062;11.722;2022-08-19T07:42:22;100786.97;;;19.59;100.00
47670;BME280;33408;52.062;11.722;2022-08-19T07:44:49;100785.88;;;19.63;100.00
47670;BME280;33408;52.062;11.722;2022-08-19T07:47:16;100780.97;;;19.73;100.00
47670;BME280;33408;52.062;11.722;2022-08-19T07:49:43;100780.41;;;19.84;100.00
47670;BME280;33408;52.062;11.722;2022-08-19T07:52:09;100778.94;;;19.78;100.00
47670;BME280;33408;52.062;11.722;2022-08-19T07:54:39;100778.41;;;20.03;100.00
47670;BME280;33408;52.062;11.722;2022-08-19T07:57:07;100778.06;;;20.10;100.00
47670;BME280;33408;52.062;11.722;2022-08-19T07:59:34;100766.66;;;20.09;100.00
47670;BME280;33408;52.062;11.722;2022-08-19T08:02:04;100781.63;;;20.09;100.00
47670;BME280;33408;52.062;11.722;2022-08-19T08:04:31;100775.78;;;20.03;100.00
47670;BME280;33408;52.062;11.722;2022-08-19T08:07:15;100775.16;;;20.14;100.00
47670;BME280;33408;52.062;11.722;2022-08-19T08:10:00;100776.78;;;20.31;100.00
47670;BME280;33408;52.062;11.722;2022-08-19T08:12:30;100765.22;;;20.19;100.00
47670;BME280;33408;52.062;11.722;2022-08-19T08:14:59;100771.88;;;20.25;100.00
47670;BME280;33408;52.062;11.722;2022-08-19T08:17:28;100783.94;;;20.29;100.00
47670;BME280;33408;52.062;11.722;2022-08-19T08:19:55;100784.69;;;20.31;100.00
47670;BME280;33408;52.062;11.722;2022-08-19T08:22:23;100783.84;;;20.31;100.00
47670;BME280;33408;52.062;11.722;2022-08-19T08:25:12;100782.41;;;20.55;100.00
47670;BME280;33408;52.062;11.722;2022-08-19T08:27:40;100790.63;;;20.35;100.00
47670;BME280;33408;52.062;11.722;2022-08-19T08:30:08;100788.94;;;20.03;100.00
47670;BME280;33408;52.062;11.722;2022-08-19T08:32:36;100784.91;;;20.12;100.00
47670;BME280;33408;52.062;11.722;2022-08-19T08:35:03;100786.00;;;20.24;100.00
47670;BME280;33408;52.062;11.722;2022-08-19T08:37:30;100799.16;;;20.24;100.00
47670;BME280;33408;52.062;11.722;2022-08-19T08:39:57;100803.63;;;20.08;100.00
47670;BME280;33408;52.062;11.722;2022-08-19T08:42:29;100808.28;;;20.02;100.00
47670;BME280;33408;52.062;11.722;2022-08-19T08:45:00;100813.53;;;20.02;100.00
47670;BME280;33408;52.062;11.722;2022-08-19T08:47:30;100820.41;;;20.21;100.00
47670;BME280;33408;52.062;11.722;2022-08-19T08:50:03;100818.88;;;20.01;100.00
47670;BME280;33408;52.062;11.722;2022-08-19T08:52:33;100817.56;;;19.94;100.00
47670;BME280;33408;52.062;11.722;2022-08-19T08:55:05;100823.16;;;19.88;100.00
47670;BME280;33408;52.062;11.722;2022-08-19T08:57:37;100816.72;;;19.93;100.00
47670;BME280;33408;52.062;11.722;2022-08-19T09:00:08;100824.78;;;19.90;100.00
47670;BME280;33408;52.062;11.722;2022-08-19T09:02:36;100823.41;;;19.83;100.00
47670;BME280;33408;52.062;11.722;2022-08-19T09:05:03;100816.63;;;19.79;100.00
47670;BME280;33408;52.062;11.722;2022-08-19T09:07:42;100817.47;;;19.79;100.00
47670;BME280;33408;52.062;11.722;2022-08-19T09:10:19;100823.03;;;19.73;100.00
47670;BME280;33408;52.062;11.722;2022-08-19T09:12:54;100825.28;;;19.97;100.00
47670;BME280;33408;52.062;11.722;2022-08-19T09:15:29;100821.94;;;20.09;100.00
47670;BME280;33408;52.062;11.722;2022-08-19T09:17:59;100828.06;;;20.10;100.00
47670;BME280;33408;52.062;11.722;2022-08-19T09:20:27;100820.91;;;20.12;100.00
47670;BME280;33408;52.062;11.722;2022-08-19T09:22:53;100828.91;;;19.94;100.00
47670;BME280;33408;52.062;11.722;2022-08-19T09:25:21;100818.19;;;20.13;100.00
47670;BME280;33408;52.062;11.722;2022-08-19T09:27:51;100821.31;;;20.20;100.00
47670;BME280;33408;52.062;11.722;2022-08-19T09:30:20;100823.59;;;20.26;100.00
47670;BME280;33408;52.062;11.722;2022-08-19T09:32:49;100813.97;;;20.41;100.00
47670;BME280;33408;52.062;11.722;2022-08-19T09:35:19;100816.50;;;20.43;100.00
47670;BME280;33408;52.062;11.722;2022-08-19T09:37:48;100815.88;;;20.69;100.00
47670;BME280;33408;52.062;11.722;2022-08-19T09:40:16;100819.41;;;20.68;100.00
47670;BME280;33408;52.062;11.722;2022-08-19T09:42:43;100817.16;;;20.76;100.00
47670;BME280;33408;52.062;11.722;2022-08-19T09:45:14;100818.13;;;21.19;100.00
47670;BME280;33408;52.062;11.722;2022-08-19T09:47:42;100822.09;;;21.11;100.00
47670;BME280;33408;52.062;11.722;2022-08-19T09:50:11;100821.63;;;21.19;100.00
47670;BME280;33408;52.062;11.722;2022-08-19T09:52:38;100826.53;;;20.97;100.00
47670;BME280;33408;52.062;11.722;2022-08-19T09:55:06;100832.84;;;21.23;100.00
47670;BME280;33408;52.062;11.722;2022-08-19T09:57:33;100829.25;;;20.95;100.00
47670;BME280;33408;52.062;11.722;2022-08-19T10:00:00;100831.72;;;21.12;100.00
47670;BME280;33408;52.062;11.722;2022-08-19T10:02:28;100827.66;;;21.21;100.00
47670;BME280;33408;52.062;11.722;2022-08-19T10:04:55;100818.13;;;21.19;100.00
47670;BME280;33408;52.062;11.722;2022-08-19T10:07:39;100811.38;;;22.12;100.00
47670;BME280;33408;52.062;11.722;2022-08-19T10:10:07;100812.34;;;22.64;100.00
47670;BME280;33408;52.062;11.722;2022-08-19T10:12:34;100811.84;;;22.98;100.00
47670;BME280;33408;52.062;11.722;2022-08-19T10:15:02;100812.16;;;22.80;100.00
47670;BME280;33408;52.062;11.722;2022-08-19T10:17:30;100812.91;;;23.08;100.00
47670;BME280;33408;52.062;11.722;2022-08-19T10:19:58;100804.31;;;22.91;100.00
47670;BME280;33408;52.062;11.722;2022-08-19T10:22:25;100807.16;;;22.63;100.00
47670;BME280;33408;52.062;11.722;2022-08-19T10:24:52;100803.34;;;22.67;100.00
47670;BME280;33408;52.062;11.722;2022-08-19T10:27:19;100799.34;;;22.87;100.00
47670;BME280;33408;52.062;11.722;2022-08-19T10:29:46;100799.13;;;22.11;100.00
47670;BME280;33408;52.062;11.722;2022-08-19T10:32:12;100790.94;;;22.29;100.00
47670;BME280;33408;52.062;11.722;2022-08-19T10:34:40;100803.69;;;22.49;100.00
47670;BME280;33408;52.062;11.722;2022-08-19T10:37:07;100810.31;;;22.42;100.00
47670;BME280;33408;52.062;11.722;2022-08-19T10:39:35;100780.53;;;22.66;100.00
47670;BME280;33408;52.062;11.722;2022-08-19T10:42:04;100787.59;;;22.91;100.00
47670;BME280;33408;52.062;11.722;2022-08-19T10:44:32;100786.59;;;22.28;100.00
47670;BME280;33408;52.062;11.722;2022-08-19T10:47:01;100801.31;;;22.04;100.00
47670;BME280;33408;52.062;11.722;2022-08-19T10:49:27;100801.25;;;22.19;100.00
47670;BME280;33408;52.062;11.722;2022-08-19T10:51:56;100795.97;;;22.19;100.00
47670;BME280;33408;52.062;11.722;2022-08-19T10:54:40;100781.38;;;22.66;100.00
47670;BME280;33408;52.062;11.722;2022-08-19T10:57:24;100790.09;;;22.28;100.00
47670;BME280;33408;52.062;11.722;2022-08-19T10:59:54;100792.69;;;22.15;100.00
47670;BME280;33408;52.062;11.722;2022-08-19T11:02:21;100795.53;;;22.39;100.00
47670;BME280;33408;52.062;11.722;2022-08-19T11:04:48;100788.22;;;22.03;100.00
47670;BME280;33408;52.062;11.722;2022-08-19T11:07:18;100776.50;;;22.60;100.00
47670;BME280;33408;52.062;11.722;2022-08-19T11:09:44;100779.03;;;22.36;100.00
47670;BME280;33408;52.062;11.722;2022-08-19T11:12:12;100781.97;;;22.44;100.00
47670;BME280;33408;52.062;11.722;2022-08-19T11:14:40;100782.06;;;22.30;100.00
47670;BME280;33408;52.062;11.722;2022-08-19T11:17:07;100779.31;;;22.31;100.00
47670;BME280;33408;52.062;11.722;2022-08-19T11:19:34;100774.41;;;22.52;100.00
47670;BME280;33408;52.062;11.722;2022-08-19T11:22:01;100779.34;;;22.70;100.00
47670;BME280;33408;52.062;11.722;2022-08-19T11:24:30;100779.03;;;22.74;100.00
47670;BME280;33408;52.062;11.722;2022-08-19T11:27:01;100787.19;;;22.71;100.00
47670;BME280;33408;52.062;11.722;2022-08-19T11:29:30;100792.03;;;22.65;100.00
47670;BME280;33408;52.062;11.722;2022-08-19T11:31:57;100792.25;;;22.49;100.00
47670;BME280;33408;52.062;11.722;2022-08-19T11:34:27;100801.00;;;22.36;100.00
47670;BME280;33408;52.062;11.722;2022-08-19T11:36:55;100793.03;;;22.64;100.00
47670;BME280;33408;52.062;11.722;2022-08-19T11:39:23;100791.00;;;22.80;100.00
47670;BME280;33408;52.062;11.722;2022-08-19T11:41:51;100786.13;;;23.25;100.00
47670;BME280;33408;52.062;11.722;2022-08-19T11:44:18;100788.34;;;23.06;100.00
47670;BME280;33408;52.062;11.722;2022-08-19T11:46:45;100780.22;;;23.09;100.00
47670;BME280;33408;52.062;11.722;2022-08-19T11:49:13;100781.63;;;23.39;100.00
47670;BME280;33408;52.062;11.722;2022-08-19T11:51:41;100784.00;;;23.30;100.00
47670;BME280;33408;52.062;11.722;2022-08-19T11:54:08;100780.47;;;23.43;100.00
47670;BME280;33408;52.062;11.722;2022-08-19T11:56:36;100781.03;;;23.35;100.00
47670;BME280;33408;52.062;11.722;2022-08-19T11:59:05;100782.81;;;23.35;100.00
47670;BME280;33408;52.062;11.722;2022-08-19T12:01:42;100779.34;;;23.58;100.00
47670;BME280;33408;52.062;11.722;2022-08-19T12:04:09;100773.59;;;23.40;99.53
47670;BME280;33408;52.062;11.722;2022-08-19T12:06:39;100778.97;;;23.76;96.67
47670;BME280;33408;52.062;11.722;2022-08-19T12:09:07;100774.34;;;23.66;97.56
47670;BME280;33408;52.062;11.722;2022-08-19T12:11:42;100770.75;;;23.67;96.64
47670;BME280;33408;52.062;11.722;2022-08-19T12:14:12;100771.06;;;23.39;97.25
47670;BME280;33408;52.062;11.722;2022-08-19T12:16:39;100777.91;;;23.54;97.79
47670;BME280;33408;52.062;11.722;2022-08-19T12:19:07;100769.09;;;23.54;97.40
47670;BME280;33408;52.062;11.722;2022-08-19T12:21:35;100771.41;;;23.82;98.63
47670;BME280;33408;52.062;11.722;2022-08-19T12:24:03;100767.16;;;23.69;97.33
47670;BME280;33408;52.062;11.722;2022-08-19T12:26:30;100774.25;;;23.92;96.70
47670;BME280;33408;52.062;11.722;2022-08-19T12:28:57;100766.50;;;23.65;95.46
47670;BME280;33408;52.062;11.722;2022-08-19T12:31:26;100764.38;;;23.46;95.73
47670;BME280;33408;52.062;11.722;2022-08-19T12:33:53;100763.97;;;23.63;96.15
47670;BME280;33408;52.062;11.722;2022-08-19T12:36:20;100765.00;;;23.74;96.99
47670;BME280;33408;52.062;11.722;2022-08-19T12:38:48;100762.34;;;23.49;97.74